This is the latest recevied weather packets stored in our database for station/object DL4MGC-10. If no packets are shown the sender has not sent any weather packets the latest 10 day(s).
| Time | Temp. | Humidity | Pressure | Rain* | Wind** | Luminosity | Snow |
|---|---|---|---|---|---|---|---|
| 1778050483 | 14.44° C | 80% | 1007.3 hPa | - | - | - | - |
| 1778049583 | 14.44° C | 81% | 1007.3 hPa | - | - | - | - |
| 1778048683 | 14.44° C | 82% | 1007.3 hPa | - | - | - | - |
| 1778047783 | 13.33° C | 83% | 1007.3 hPa | - | - | - | - |
| 1778046883 | 12.78° C | 86% | 1007.4 hPa | - | - | - | - |
| 1778045983 | 11.67° C | 89% | 1007.2 hPa | - | - | - | - |
| 1778045083 | 11.67° C | 89% | 1007.5 hPa | - | - | - | - |
| 1778044183 | 10.56° C | 90% | 1007.7 hPa | - | - | - | - |
| 1778043283 | 11.11° C | 88% | 1007.6 hPa | - | - | - | - |
| 1778042382 | 11.11° C | 88% | 1007.5 hPa | - | - | - | - |
| 1778041482 | 10.56° C | 90% | 1007.6 hPa | - | - | - | - |
| 1778040582 | 10.56° C | 91% | 1007.8 hPa | - | - | - | - |
| 1778039682 | 10.56° C | 90% | 1007.7 hPa | - | - | - | - |
| 1778038782 | 10.56° C | 91% | 1008 hPa | - | - | - | - |
| 1778037882 | 11.11° C | 88% | 1008.1 hPa | - | - | - | - |
| 1778036982 | 11.67° C | 88% | 1008.2 hPa | - | - | - | - |
| 1778036082 | 12.22° C | 86% | 1008.1 hPa | - | - | - | - |
| 1778035182 | 12.22° C | 84% | 1008.2 hPa | - | - | - | - |
| 1778034282 | 12.78° C | 84% | 1008.4 hPa | - | - | - | - |
| 1778033382 | 12.78° C | 85% | 1008.4 hPa | - | - | - | - |
| 1778032482 | 13.33° C | 83% | 1008.3 hPa | - | - | - | - |
| 1778031581 | 13.33° C | 83% | 1008.4 hPa | - | - | - | - |
| 1778030681 | 12.78° C | 85% | 1008.4 hPa | - | - | - | - |
| 1778029781 | 13.33° C | 84% | 1008.6 hPa | - | - | - | - |
| 1778028881 | 12.78° C | 85% | 1008.6 hPa | - | - | - | - |
* Rain since midnight (hover to see other rain measurements)
** Current wind speed in m/s (hover to see current wind gust speed)